Airfield :
LOGIN :

Register | Disclaimer

   EN    FR    IT 

 










Legend :    VFR   Marginal VFR   IFR   Intensive IFR   Very Intensive IFR
Visi :
Ceiling :
>= 8 km
>= 3000ft
5 to 8 km
1000 to 3000 ft
1500m to 5 km
500 to 1000 ft
800 to 1500m
200 to 500 ft
< 800m
< 200 ft
Symbols :   Thunderstorms  Fog  Heavy snow  Heavy precipitations  Wind > 20 kt
SIGMETs :     Misc.  Thunderstorms  Icing  Turbulence  Mountain Waves  Volcanic Ashes






- Airport Elevation : 325 ft
- IATA code : BES


LFRB - Brest

CURRENT METAR :
  • 301300Z AUTO 12007KT 090V150 9999 0750 R25/P2000 R07/P2000 // NSC 11/05 Q1021

EXPIRED METARs :
  • 301230Z AUTO 13007KT 090V160 9999 0750 R25/P2000 R07/P2000 // NSC 12/05 Q1021
  • 301200Z AUTO 14007KT CAVOK 11/04 Q1021 NOSIG
  • 301130Z AUTO 16009KT CAVOK 11/05 Q1021 NOSIG
  • 301100Z AUTO 16007KT CAVOK 11/04 Q1021 TEMPO BKN005
  • 301030Z AUTO 17004KT 120V200 9999 FEW040 11/05 Q1021 TEMPO BKN005

TAF TAF LFRB
Valid from the 30 at 12:00 until the 01 at 18:00 UTC


301100Z 3012/0118 11006KT CAVOK
PROB30
TEMPO 3016/3019 BKN013
TEMPO 0103/0107 4000 BR
PROB30
TEMPO 0107/0110 BKN008
ATIS : +33 2 98 32 02 71



MET'MAP, your aeronautical weather chart ! - Copyright ORBIFLY December 2007 - Disclaimer

ORBIFLY MET'MAP TEAM :

Programming & Development : Alexandra Zaïnal
Original concept : Baudouin d'Aumeries
Technical & hardware support : Manuel Goepfert
Assistance : Marc-Olivier Méhu




SOURCES & CREDITS :

   NOAA